createdAt,value
2017-11-22T00:01:46.452Z,31.07
2017-11-22T00:04:14.755Z,39.50
2017-11-22T00:06:43.116Z,33.30
2017-11-22T00:09:11.446Z,35.30
2017-11-22T00:11:39.748Z,38.27
2017-11-22T00:14:08.849Z,28.80
2017-11-22T00:16:37.910Z,34.43
2017-11-22T00:19:07.032Z,39.40
2017-11-22T00:21:36.132Z,35.10
2017-11-22T00:24:04.436Z,35.83
2017-11-22T00:26:32.763Z,36.50
2017-11-22T00:29:01.061Z,36.90
2017-11-22T00:31:30.136Z,36.37
2017-11-22T00:33:59.568Z,38.77
2017-11-22T00:36:27.867Z,40.10
2017-11-22T00:38:56.226Z,33.00
2017-11-22T00:41:24.535Z,37.87
2017-11-22T00:43:52.847Z,30.87
2017-11-22T00:46:21.151Z,23.80
2017-11-22T00:48:49.482Z,26.57
2017-11-22T00:51:17.809Z,23.00
2017-11-22T00:53:46.140Z,21.53
2017-11-22T00:56:14.468Z,22.13
2017-11-22T00:58:42.773Z,29.20
2017-11-22T01:01:11.113Z,22.87
2017-11-22T01:03:39.423Z,29.43
2017-11-22T01:06:07.718Z,25.00
2017-11-22T01:08:36.828Z,20.10
2017-11-22T01:11:05.908Z,23.60
2017-11-22T01:13:34.252Z,23.20
2017-11-22T01:16:03.012Z,36.83
2017-11-22T01:18:31.345Z,44.17
2017-11-22T01:20:59.689Z,24.30
2017-11-22T01:23:27.997Z,40.10
2017-11-22T01:25:56.331Z,28.90
2017-11-22T01:28:24.651Z,25.93
2017-11-22T01:30:53.019Z,26.60
2017-11-22T01:33:21.336Z,25.07
2017-11-22T01:35:50.392Z,30.67
2017-11-22T01:38:18.726Z,27.00
2017-11-22T01:40:47.044Z,24.07
2017-11-22T01:43:15.389Z,39.07
2017-11-22T01:45:43.718Z,37.03
2017-11-22T01:48:12.028Z,38.63
2017-11-22T01:50:40.388Z,38.30
2017-11-22T01:53:09.464Z,40.17
2017-11-22T01:55:37.759Z,44.17
2017-11-22T01:58:06.123Z,39.23
2017-11-22T02:00:47.114Z,34.97
2017-11-22T02:03:18.267Z,39.03
2017-11-22T02:05:46.594Z,42.83
2017-11-22T02:08:14.899Z,45.40
2017-11-22T02:10:44.015Z,40.70
2017-11-22T02:13:12.348Z,41.60
2017-11-22T02:15:40.669Z,41.27
2017-11-22T02:18:09.757Z,42.90
2017-11-22T02:20:38.100Z,49.80
2017-11-22T02:23:06.439Z,47.20
2017-11-22T02:25:34.792Z,42.17
2017-11-22T02:28:03.099Z,33.70
2017-11-22T02:30:31.410Z,34.77
2017-11-22T02:32:59.740Z,35.57
2017-11-22T02:35:28.063Z,36.50
2017-11-22T02:37:56.393Z,32.40
2017-11-22T02:40:24.727Z,42.13
2017-11-22T02:42:52.997Z,41.03
2017-11-22T02:45:21.343Z,36.40
2017-11-22T02:47:49.633Z,24.30
2017-11-22T02:50:17.973Z,30.57
2017-11-22T02:52:46.283Z,29.77
2017-11-22T02:55:14.612Z,25.47
2017-11-22T02:57:42.952Z,27.87
2017-11-22T03:00:11.262Z,28.97
2017-11-22T03:02:40.356Z,28.50
2017-11-22T03:05:08.680Z,28.23
2017-11-22T03:07:37.771Z,31.63
2017-11-22T03:10:06.124Z,40.67
2017-11-22T03:12:34.463Z,37.47
2017-11-22T03:15:03.560Z,43.90
2017-11-22T03:17:31.899Z,38.70
2017-11-22T03:20:00.197Z,39.07
2017-11-22T03:22:28.531Z,44.53
2017-11-22T03:24:56.880Z,41.90
2017-11-22T03:27:25.967Z,41.13
2017-11-22T03:29:55.063Z,37.77
2017-11-22T03:32:24.182Z,34.30
2017-11-22T03:34:52.483Z,34.60
2017-11-22T03:37:20.829Z,27.47
2017-11-22T03:39:49.397Z,35.20
2017-11-22T03:42:18.469Z,36.90
2017-11-22T03:44:46.825Z,34.43
2017-11-22T03:47:15.129Z,42.83
2017-11-22T03:49:49.992Z,42.00
2017-11-22T03:52:24.083Z,35.80
2017-11-22T03:54:53.192Z,28.33
2017-11-22T03:57:21.503Z,30.33
2017-11-22T03:59:49.850Z,35.53
2017-11-22T04:02:25.947Z,45.80
2017-11-22T04:04:54.276Z,25.80
2017-11-22T04:07:22.606Z,39.40
2017-11-22T04:09:50.969Z,36.13
2017-11-22T04:12:19.298Z,33.30
2017-11-22T04:14:47.623Z,30.77
2017-11-22T04:17:15.972Z,35.87
2017-11-22T04:19:50.881Z,28.97
2017-11-22T04:22:19.211Z,28.53
2017-11-22T04:24:47.557Z,26.70
2017-11-22T04:27:15.929Z,32.57
2017-11-22T04:29:44.988Z,32.93
2017-11-22T04:32:13.296Z,24.70
2017-11-22T04:34:42.403Z,27.80
2017-11-22T04:37:10.711Z,30.93
2017-11-22T04:39:39.025Z,28.80
2017-11-22T04:42:07.423Z,36.67
2017-11-22T04:44:36.470Z,30.87
2017-11-22T04:47:04.843Z,35.70
2017-11-22T04:49:33.150Z,36.70
2017-11-22T04:52:02.235Z,42.33
2017-11-22T04:54:30.556Z,35.70
2017-11-22T04:56:58.934Z,38.63
2017-11-22T04:59:27.234Z,32.13
2017-11-22T05:01:55.536Z,33.40
2017-11-22T05:04:23.948Z,40.87
2017-11-22T05:06:53.012Z,41.90
2017-11-22T05:09:21.381Z,35.40
2017-11-22T05:11:49.713Z,41.70
2017-11-22T05:14:18.059Z,34.20
2017-11-22T05:16:47.131Z,34.03
2017-11-22T05:19:15.447Z,36.70
2017-11-22T05:21:44.576Z,40.97
2017-11-22T05:24:12.915Z,46.70
2017-11-22T05:26:41.983Z,46.67
2017-11-22T05:29:11.101Z,24.17
2017-11-22T05:31:40.195Z,28.43
2017-11-22T05:34:09.263Z,48.23
2017-11-22T05:36:38.392Z,53.00
2017-11-22T05:39:07.444Z,50.90
2017-11-22T05:41:35.800Z,56.73
2017-11-22T05:44:04.113Z,58.67
2017-11-22T05:46:32.415Z,55.07
2017-11-22T05:49:00.752Z,46.83
2017-11-22T05:51:29.095Z,58.10
2017-11-22T05:53:57.407Z,68.20
2017-11-22T05:56:25.764Z,60.80
2017-11-22T05:58:54.113Z,62.97
2017-11-22T06:01:22.439Z,79.10
2017-11-22T06:03:50.828Z,65.03
2017-11-22T06:06:19.155Z,52.43
2017-11-22T06:08:47.494Z,54.90
2017-11-22T06:11:15.783Z,41.20
2017-11-22T06:13:44.855Z,28.30
2017-11-22T06:16:13.228Z,38.40
2017-11-22T06:18:41.548Z,40.27
2017-11-22T06:21:09.914Z,43.60
2017-11-22T06:23:38.259Z,40.70
2017-11-22T06:26:06.584Z,23.23
2017-11-22T06:28:34.895Z,32.13
2017-11-22T06:31:03.295Z,34.27
2017-11-22T06:33:31.665Z,40.27
2017-11-22T06:35:59.968Z,38.47
2017-11-22T06:38:29.063Z,32.60
2017-11-22T06:40:58.131Z,39.53
2017-11-22T06:43:26.541Z,43.67
2017-11-22T06:45:55.630Z,38.50
2017-11-22T06:48:24.731Z,41.03
2017-11-22T06:50:53.071Z,40.10
2017-11-22T06:53:21.400Z,41.10
2017-11-22T06:55:49.706Z,31.70
2017-11-22T06:58:18.041Z,34.67
2017-11-22T07:00:46.359Z,36.10
2017-11-22T07:03:15.008Z,39.57
2017-11-22T07:05:43.321Z,34.00
2017-11-22T07:08:11.661Z,30.17
2017-11-22T07:10:40.725Z,28.93
2017-11-22T07:13:09.031Z,26.70
2017-11-22T07:15:37.364Z,25.73
2017-11-22T07:18:05.657Z,15.37
2017-11-22T07:20:34.017Z,27.60
2017-11-22T07:23:03.113Z,24.97
2017-11-22T07:25:31.418Z,19.23
2017-11-22T07:28:00.516Z,29.07
2017-11-22T07:30:29.589Z,20.50
2017-11-22T07:32:57.923Z,22.57
2017-11-22T07:35:32.861Z,23.40
2017-11-22T07:38:02.014Z,23.77
2017-11-22T07:40:31.087Z,26.20
2017-11-22T07:42:59.428Z,29.77
2017-11-22T07:45:27.725Z,24.83
2017-11-22T07:48:01.947Z,32.63
2017-11-22T07:50:30.254Z,42.83
2017-11-22T07:52:59.492Z,27.87
2017-11-22T07:55:27.842Z,29.77
2017-11-22T07:57:56.190Z,33.20
2017-11-22T08:00:24.524Z,39.10
2017-11-22T08:02:58.606Z,39.93
2017-11-22T08:05:26.990Z,58.80
2017-11-22T08:07:55.295Z,43.07
2017-11-22T08:10:23.652Z,35.93
2017-11-22T08:12:51.948Z,36.90
2017-11-22T08:15:20.285Z,36.63
2017-11-22T08:17:49.365Z,32.00
2017-11-22T08:20:17.692Z,39.63
2017-11-22T08:22:46.064Z,46.10
2017-11-22T08:25:14.364Z,43.50
2017-11-22T08:27:42.674Z,42.43
2017-11-22T08:30:11.795Z,45.93
2017-11-22T08:32:40.127Z,45.60
2017-11-22T08:35:08.523Z,40.37
2017-11-22T08:37:36.846Z,49.00
2017-11-22T08:40:05.153Z,34.27
2017-11-22T08:42:36.442Z,36.17
2017-11-22T08:45:04.755Z,38.77
2017-11-22T08:47:33.102Z,33.07
2017-11-22T08:50:01.415Z,37.50
2017-11-22T08:52:29.738Z,40.63
2017-11-22T08:55:03.714Z,35.17
2017-11-22T08:57:37.796Z,37.57
2017-11-22T09:00:11.876Z,29.23
2017-11-22T09:02:54.795Z,34.40
2017-11-22T09:05:23.895Z,36.57
2017-11-22T09:07:52.208Z,38.60
2017-11-22T09:10:20.568Z,35.00
2017-11-22T09:12:55.579Z,37.90
2017-11-22T09:15:24.677Z,48.83
2017-11-22T09:17:55.783Z,36.77
2017-11-22T09:20:24.905Z,44.40
2017-11-22T09:22:54.680Z,42.60
2017-11-22T09:25:23.032Z,37.73
2017-11-22T09:27:56.165Z,37.50
2017-11-22T09:30:24.507Z,29.97
2017-11-22T09:32:52.812Z,33.90
2017-11-22T09:35:21.131Z,42.83
2017-11-22T09:37:49.472Z,39.67
2017-11-22T09:40:17.800Z,41.43
2017-11-22T09:42:46.147Z,38.00
2017-11-22T09:45:15.220Z,34.77
2017-11-22T09:47:43.522Z,31.70
2017-11-22T09:50:11.859Z,32.30
2017-11-22T09:52:40.724Z,24.53
2017-11-22T09:55:09.053Z,34.57
2017-11-22T09:57:38.125Z,33.70
2017-11-22T10:00:06.529Z,37.87
2017-11-22T10:02:34.811Z,31.80
2017-11-22T10:05:03.127Z,31.80
2017-11-22T10:07:31.482Z,36.33
2017-11-22T10:09:59.790Z,28.97
2017-11-22T10:12:28.143Z,25.53
2017-11-22T10:14:56.467Z,21.13
2017-11-22T10:17:30.504Z,27.40
2017-11-22T10:20:04.492Z,26.87
2017-11-22T10:22:38.523Z,24.33
2017-11-22T10:25:10.687Z,25.97
2017-11-22T10:27:43.572Z,21.50
2017-11-22T10:30:13.452Z,28.87
2017-11-22T10:32:47.375Z,28.37
2017-11-22T10:35:15.723Z,23.13
2017-11-22T10:37:44.063Z,20.80
2017-11-22T10:40:13.314Z,25.00
2017-11-22T10:42:41.638Z,26.20
2017-11-22T10:45:10.736Z,32.60
2017-11-22T10:47:39.798Z,27.17
2017-11-22T10:50:08.904Z,26.67
2017-11-22T10:52:38.164Z,26.00
2017-11-22T10:55:06.512Z,30.50
2017-11-22T10:57:34.815Z,24.87
2017-11-22T11:00:03.158Z,26.77
2017-11-22T11:02:31.501Z,25.70
2017-11-22T11:04:59.846Z,25.83
2017-11-22T11:07:28.176Z,21.93
2017-11-22T11:09:56.532Z,31.53
2017-11-22T11:12:24.819Z,31.07
2017-11-22T11:14:53.151Z,27.77
2017-11-22T11:17:21.519Z,22.70
2017-11-22T11:19:49.849Z,24.47
2017-11-22T11:22:18.930Z,26.10
2017-11-22T11:24:48.052Z,27.30
2017-11-22T11:27:17.126Z,22.83
2017-11-22T11:29:46.248Z,25.73
2017-11-22T11:32:14.839Z,27.33
2017-11-22T11:34:43.159Z,22.87
2017-11-22T11:37:11.503Z,29.50
2017-11-22T11:39:39.872Z,34.13
2017-11-22T11:42:08.228Z,26.37
2017-11-22T11:44:37.318Z,27.90
2017-11-22T11:47:05.676Z,33.50
2017-11-22T11:49:34.787Z,26.93
2017-11-22T11:52:03.129Z,27.37
2017-11-22T11:54:31.466Z,33.63
2017-11-22T11:56:59.761Z,27.00
2017-11-22T11:59:28.117Z,27.57
2017-11-22T12:01:56.448Z,30.03
2017-11-22T12:04:25.539Z,30.00
2017-11-22T12:06:53.887Z,33.70
2017-11-22T12:09:22.203Z,29.80
2017-11-22T12:11:50.556Z,29.20
2017-11-22T12:14:18.851Z,28.40
2017-11-22T12:16:47.260Z,29.13
2017-11-22T12:19:15.615Z,27.57
2017-11-22T12:21:50.476Z,32.33
2017-11-22T12:24:18.787Z,38.30
2017-11-22T12:26:47.084Z,40.07
2017-11-22T12:29:15.411Z,33.30
2017-11-22T12:31:43.715Z,34.00
2017-11-22T12:34:14.967Z,25.57
2017-11-22T12:36:43.269Z,37.83
2017-11-22T12:39:11.608Z,31.20
2017-11-22T12:41:40.000Z,30.53
2017-11-22T12:44:11.195Z,32.67
2017-11-22T12:46:39.849Z,33.73
2017-11-22T12:49:08.612Z,32.30
2017-11-22T12:51:36.977Z,28.90
2017-11-22T12:54:05.339Z,22.60
2017-11-22T12:56:33.698Z,30.40
2017-11-22T12:59:02.021Z,30.23
2017-11-22T13:01:30.381Z,31.50
2017-11-22T13:03:58.699Z,32.80
2017-11-22T13:06:27.037Z,24.33
2017-11-22T13:08:55.381Z,27.90
2017-11-22T13:11:25.675Z,28.67
2017-11-22T13:13:54.087Z,40.70
2017-11-22T13:16:22.417Z,25.30
2017-11-22T13:18:50.775Z,34.63
2017-11-22T13:21:19.119Z,38.80
2017-11-22T13:23:47.451Z,36.97
2017-11-22T13:26:15.770Z,34.50
2017-11-22T13:28:44.138Z,34.43
2017-11-22T13:31:13.207Z,33.90
2017-11-22T13:33:41.532Z,33.20
2017-11-22T13:36:10.635Z,31.70
2017-11-22T13:38:38.980Z,31.57
2017-11-22T13:41:07.277Z,34.20
2017-11-22T13:43:35.617Z,32.27
2017-11-22T13:46:04.673Z,35.77
2017-11-22T13:48:33.009Z,29.87
2017-11-22T13:51:03.056Z,35.83
2017-11-22T13:53:31.436Z,35.17
2017-11-22T13:55:59.735Z,39.10
2017-11-22T13:58:28.105Z,40.87
2017-11-22T14:00:56.541Z,25.10
2017-11-22T14:03:24.822Z,20.97
2017-11-22T14:05:53.887Z,36.77
2017-11-22T14:08:23.010Z,20.40
2017-11-22T14:10:52.092Z,19.10
2017-11-22T14:13:21.207Z,19.13
2017-11-22T14:15:49.578Z,17.63
2017-11-22T14:18:17.887Z,20.63
2017-11-22T14:20:46.443Z,22.00
2017-11-22T14:23:15.548Z,18.47
2017-11-22T14:25:43.850Z,20.83
2017-11-22T14:28:12.264Z,17.30
2017-11-22T14:30:40.562Z,19.00
2017-11-22T14:33:09.626Z,17.30
2017-11-22T14:35:37.967Z,17.10
2017-11-22T14:38:06.367Z,16.03
2017-11-22T14:40:35.030Z,19.43
2017-11-22T14:43:03.361Z,30.40
2017-11-22T14:45:31.728Z,19.57
2017-11-22T14:48:00.898Z,24.33
2017-11-22T14:50:29.545Z,29.00
2017-11-22T14:52:57.844Z,24.67
2017-11-22T14:55:26.210Z,34.90
2017-11-22T14:57:54.588Z,18.77
2017-11-22T15:00:23.011Z,18.00
2017-11-22T15:02:51.372Z,34.50
2017-11-22T15:05:19.729Z,20.60
2017-11-22T15:07:48.047Z,28.47
2017-11-22T15:10:16.605Z,20.73
2017-11-22T15:12:44.888Z,19.63
2017-11-22T15:15:13.212Z,16.20
2017-11-22T15:17:41.556Z,20.33
2017-11-22T15:20:10.688Z,17.33
2017-11-22T15:22:39.013Z,16.60
2017-11-22T15:25:07.341Z,18.47
2017-11-22T15:27:36.770Z,23.67
2017-11-22T15:30:05.089Z,29.73
2017-11-22T15:32:33.415Z,31.67
2017-11-22T15:35:01.733Z,22.70
2017-11-22T15:37:30.084Z,25.10
2017-11-22T15:39:58.368Z,34.73
2017-11-22T15:42:26.712Z,28.47
2017-11-22T15:44:55.025Z,31.03
2017-11-22T15:47:23.479Z,33.90
2017-11-22T15:49:53.599Z,24.60
2017-11-22T15:52:21.897Z,29.37
2017-11-22T15:54:50.276Z,29.87
2017-11-22T15:57:18.578Z,29.20
2017-11-22T15:59:46.907Z,27.23
2017-11-22T16:02:15.196Z,33.40
2017-11-22T16:04:43.532Z,32.20
2017-11-22T16:07:11.875Z,28.57
2017-11-22T16:09:40.267Z,27.27
2017-11-22T16:12:08.564Z,23.17
2017-11-22T16:14:36.948Z,25.97
2017-11-22T16:17:06.004Z,27.60
2017-11-22T16:19:34.394Z,23.50
2017-11-22T16:22:02.724Z,26.17
2017-11-22T16:24:32.402Z,41.80
2017-11-22T16:27:01.671Z,37.00
2017-11-22T16:29:30.770Z,36.83
2017-11-22T16:31:59.089Z,31.47
2017-11-22T16:34:27.404Z,30.13
2017-11-22T16:36:55.746Z,29.30
2017-11-22T16:39:24.085Z,26.97
2017-11-22T16:41:52.482Z,30.47
2017-11-22T16:44:20.844Z,39.43
2017-11-22T16:46:49.127Z,23.83
2017-11-22T16:49:17.495Z,37.83
2017-11-22T16:51:46.577Z,39.03
2017-11-22T16:54:15.689Z,38.03
2017-11-22T16:56:44.021Z,30.17
2017-11-22T16:59:12.399Z,36.37
2017-11-22T17:01:40.703Z,49.77
2017-11-22T17:04:09.047Z,40.77
2017-11-22T17:06:37.378Z,39.20
2017-11-22T17:09:06.485Z,35.50
2017-11-22T17:11:34.822Z,31.50
2017-11-22T17:14:03.182Z,38.60
2017-11-22T17:16:31.537Z,32.37
2017-11-22T17:19:00.753Z,26.67
2017-11-22T17:21:29.059Z,35.53
2017-11-22T17:23:57.380Z,42.07
2017-11-22T17:26:25.717Z,39.83
2017-11-22T17:28:54.036Z,36.80
2017-11-22T17:31:22.363Z,39.50
2017-11-22T17:33:50.668Z,41.87
2017-11-22T17:36:19.788Z,42.70
2017-11-22T17:38:48.981Z,42.10
2017-11-22T17:41:17.292Z,40.90
2017-11-22T17:43:45.614Z,35.67
2017-11-22T17:46:14.862Z,31.93
2017-11-22T17:48:43.200Z,33.00
2017-11-22T17:51:11.508Z,31.43
2017-11-22T17:53:40.651Z,33.37
2017-11-22T17:56:08.988Z,31.47
2017-11-22T17:58:37.332Z,41.83
2017-11-22T18:01:05.637Z,41.90
2017-11-22T18:03:33.979Z,37.07
2017-11-22T18:06:03.064Z,36.93
2017-11-22T18:08:31.480Z,32.80
2017-11-22T18:10:59.816Z,44.67
2017-11-22T18:13:29.376Z,55.80
2017-11-22T18:15:57.720Z,36.87
2017-11-22T18:18:26.027Z,36.60
2017-11-22T18:20:54.394Z,25.53
2017-11-22T18:23:22.716Z,26.93
2017-11-22T18:25:51.096Z,30.63
2017-11-22T18:28:20.180Z,32.93
2017-11-22T18:30:48.482Z,35.27
2017-11-22T18:33:16.823Z,28.90
2017-11-22T18:35:45.112Z,39.40
2017-11-22T18:38:13.464Z,42.93
2017-11-22T18:40:41.760Z,37.20
2017-11-22T18:43:10.103Z,38.77
2017-11-22T18:45:38.387Z,47.00
2017-11-22T18:48:06.738Z,52.93
2017-11-22T18:50:35.039Z,31.50
2017-11-22T18:53:03.391Z,38.00
2017-11-22T18:55:31.704Z,42.30
2017-11-22T18:58:00.159Z,41.73
2017-11-22T19:00:28.706Z,28.77
2017-11-22T19:02:57.027Z,36.70
2017-11-22T19:05:25.425Z,42.50
2017-11-22T19:07:53.725Z,32.50
2017-11-22T19:10:22.793Z,30.10
2017-11-22T19:12:51.131Z,35.53
2017-11-22T19:15:19.581Z,49.43
2017-11-22T19:17:48.906Z,53.57
2017-11-22T19:20:17.248Z,39.50
2017-11-22T19:22:45.665Z,39.70
2017-11-22T19:25:13.964Z,36.90
2017-11-22T19:27:43.213Z,33.80
2017-11-22T19:30:11.539Z,33.13
2017-11-22T19:32:39.868Z,33.20
2017-11-22T19:35:08.952Z,26.33
2017-11-22T19:37:38.224Z,27.30
2017-11-22T19:40:06.518Z,21.20
2017-11-22T19:42:34.832Z,28.93
2017-11-22T19:45:03.921Z,27.40
2017-11-22T19:47:32.261Z,22.60
2017-11-22T19:50:00.591Z,24.30
2017-11-22T19:52:29.645Z,25.90
2017-11-22T19:54:57.978Z,29.63
2017-11-22T19:57:26.282Z,28.43
2017-11-22T19:59:54.633Z,25.47
2017-11-22T20:02:23.004Z,23.63
2017-11-22T20:04:51.319Z,23.50
2017-11-22T20:07:31.475Z,26.23
2017-11-22T20:09:59.829Z,26.10
2017-11-22T20:12:28.199Z,29.20
2017-11-22T20:14:57.206Z,30.90
2017-11-22T20:17:25.529Z,29.20
2017-11-22T20:19:54.597Z,31.57
2017-11-22T20:22:24.428Z,21.50
2017-11-22T20:24:52.729Z,24.10
2017-11-22T20:27:21.154Z,20.07
2017-11-22T20:29:49.493Z,22.80
2017-11-22T20:32:19.669Z,24.63
2017-11-22T20:34:47.949Z,33.60
2017-11-22T20:37:16.289Z,25.37
2017-11-22T20:39:45.407Z,26.23
2017-11-22T20:42:13.786Z,24.37
2017-11-22T20:44:44.737Z,27.87
2017-11-22T20:47:14.766Z,28.40
2017-11-22T20:49:44.636Z,28.47
2017-11-22T20:52:12.922Z,32.30
2017-11-22T20:54:41.331Z,37.10
2017-11-22T20:57:10.436Z,41.67
2017-11-22T20:59:38.776Z,34.90
2017-11-22T21:02:07.227Z,38.40
2017-11-22T21:04:35.561Z,31.80
2017-11-22T21:07:04.620Z,30.03
2017-11-22T21:09:32.983Z,27.03
2017-11-22T21:12:01.354Z,28.30
2017-11-22T21:14:29.793Z,28.37
2017-11-22T21:16:58.894Z,33.73
2017-11-22T21:19:28.123Z,31.70
2017-11-22T21:21:57.365Z,32.00
2017-11-22T21:24:26.533Z,26.17
2017-11-22T21:26:54.890Z,26.30
2017-11-22T21:29:23.211Z,27.23
2017-11-22T21:31:51.577Z,29.63
2017-11-22T21:34:19.914Z,32.07
2017-11-22T21:36:48.283Z,30.17
2017-11-22T21:39:17.336Z,29.10
2017-11-22T21:41:45.701Z,27.73
2017-11-22T21:44:13.999Z,20.93
2017-11-22T21:46:42.384Z,15.13
2017-11-22T21:49:10.763Z,17.53
2017-11-22T21:51:39.141Z,19.03
2017-11-22T21:54:07.444Z,20.33
2017-11-22T21:56:35.765Z,19.27
2017-11-22T21:59:04.104Z,23.57
2017-11-22T22:01:32.400Z,21.30
2017-11-22T22:04:00.697Z,20.10
2017-11-22T22:06:29.031Z,22.97
2017-11-22T22:08:57.383Z,17.60
2017-11-22T22:11:25.745Z,19.10
2017-11-22T22:13:54.147Z,23.10
2017-11-22T22:16:23.277Z,18.03
2017-11-22T22:18:51.617Z,22.23
2017-11-22T22:21:20.728Z,33.40
2017-11-22T22:23:49.210Z,33.43
2017-11-22T22:26:17.649Z,35.47
2017-11-22T22:28:46.184Z,32.37
2017-11-22T22:31:14.586Z,36.30
2017-11-22T22:33:42.985Z,29.37
2017-11-22T22:36:12.320Z,32.13
2017-11-22T22:38:40.698Z,31.50
2017-11-22T22:41:09.057Z,37.40
2017-11-22T22:43:38.152Z,41.87
2017-11-22T22:46:06.468Z,42.47
2017-11-22T22:48:34.810Z,38.40
2017-11-22T22:51:03.162Z,43.00
2017-11-22T22:53:31.474Z,45.20
2017-11-22T22:56:00.559Z,39.37
2017-11-22T22:58:28.853Z,34.87
2017-11-22T23:00:57.931Z,37.13
2017-11-22T23:03:27.025Z,32.47
2017-11-22T23:05:55.376Z,28.27
2017-11-22T23:08:23.698Z,26.43
2017-11-22T23:10:52.027Z,33.00
2017-11-22T23:13:20.379Z,32.37
2017-11-22T23:15:48.697Z,24.60
2017-11-22T23:18:17.456Z,31.43
2017-11-22T23:20:45.783Z,28.77
2017-11-22T23:23:14.126Z,31.10
2017-11-22T23:25:42.439Z,28.87
2017-11-22T23:28:10.790Z,24.30
2017-11-22T23:30:39.091Z,27.93
2017-11-22T23:33:08.158Z,22.03
2017-11-22T23:35:37.277Z,20.30
2017-11-22T23:38:06.339Z,13.53
2017-11-22T23:40:34.676Z,10.63
2017-11-22T23:43:02.979Z,13.53
2017-11-22T23:45:32.130Z,12.60
2017-11-22T23:48:00.600Z,13.33
2017-11-22T23:50:28.903Z,10.07
2017-11-22T23:52:57.199Z,9.90
2017-11-22T23:55:25.561Z,27.93
2017-11-22T23:57:53.910Z,11.83
